createdAt,value
2022-12-12T00:01:14.785Z,95531.84
2022-12-12T00:03:43.205Z,95527.75
2022-12-12T00:06:11.542Z,95523.16
2022-12-12T00:08:41.219Z,95538.09
2022-12-12T00:11:09.709Z,95525.31
2022-12-12T00:13:38.427Z,95528.47
2022-12-12T00:16:07.605Z,95531.47
2022-12-12T00:18:36.938Z,95539.44
2022-12-12T00:21:06.852Z,95542.91
2022-12-12T00:23:35.452Z,95536.50
2022-12-12T00:26:08.310Z,95536.53
2022-12-12T00:28:36.630Z,95530.44
2022-12-12T00:31:05.222Z,95543.50
2022-12-12T00:33:33.598Z,95543.56
2022-12-12T00:36:01.887Z,95548.47
2022-12-12T00:38:30.616Z,95546.94
2022-12-12T00:41:01.129Z,95545.53
2022-12-12T00:43:30.649Z,95543.56
2022-12-12T00:45:59.745Z,95546.53
2022-12-12T00:48:28.159Z,95552.06
2022-12-12T00:50:57.247Z,95542.69
2022-12-12T00:53:25.509Z,95554.19
2022-12-12T00:55:57.464Z,95547.53
2022-12-12T00:58:26.186Z,95558.06
2022-12-12T01:00:55.811Z,95547.38
2022-12-12T01:03:24.137Z,95553.13
2022-12-12T01:05:52.748Z,95549.03
2022-12-12T01:08:21.105Z,95550.69
2022-12-12T01:10:49.444Z,95551.34
2022-12-12T01:13:17.841Z,95559.22
2022-12-12T01:15:46.163Z,95561.13
2022-12-12T01:18:15.915Z,95560.81
2022-12-12T01:20:44.287Z,95567.50
2022-12-12T01:23:13.004Z,95565.22
2022-12-12T01:25:41.491Z,95557.94
2022-12-12T01:28:10.614Z,95559.22
2022-12-12T01:30:38.981Z,95563.34
2022-12-12T01:33:07.550Z,95556.84
2022-12-12T01:35:37.189Z,95563.84
2022-12-12T01:38:05.496Z,95562.66
2022-12-12T01:40:33.830Z,95561.72
2022-12-12T01:43:02.097Z,95564.34
2022-12-12T01:45:57.620Z,95556.22
2022-12-12T01:48:28.760Z,95558.75
2022-12-12T01:51:01.087Z,95551.34
2022-12-12T01:53:31.164Z,95553.47
2022-12-12T01:56:00.083Z,95564.81
2022-12-12T01:58:28.590Z,95555.41
2022-12-12T02:00:56.878Z,95569.09
2022-12-12T02:03:25.243Z,95567.81
2022-12-12T02:05:56.069Z,95573.47
2022-12-12T02:08:27.047Z,95567.13
2022-12-12T02:10:55.377Z,95573.28
2022-12-12T02:13:26.652Z,95576.09
2022-12-12T02:16:01.115Z,95582.88
2022-12-12T02:18:33.564Z,95580.91
2022-12-12T02:21:12.304Z,95589.00
2022-12-12T02:23:58.597Z,95582.59
2022-12-12T02:26:53.607Z,95583.63
2022-12-12T02:29:40.723Z,95589.16
2022-12-12T02:32:17.221Z,95581.44
2022-12-12T02:34:50.622Z,95585.66
2022-12-12T02:37:24.541Z,95583.47
2022-12-12T02:39:59.742Z,95588.00
2022-12-12T02:42:30.541Z,95578.69
2022-12-12T02:45:01.269Z,95587.88
2022-12-12T02:47:32.072Z,95590.81
2022-12-12T02:50:05.021Z,95589.44
2022-12-12T02:52:33.676Z,95589.00
2022-12-12T02:55:02.156Z,95589.06
2022-12-12T02:57:30.505Z,95587.78
2022-12-12T03:00:02.589Z,95579.66
2022-12-12T03:02:49.221Z,95587.97
2022-12-12T03:05:49.143Z,95581.38
2022-12-12T03:08:29.012Z,95590.84
2022-12-12T03:10:59.630Z,95597.66
2022-12-12T03:13:30.826Z,95599.59
2022-12-12T03:16:09.580Z,95594.19
2022-12-12T03:18:43.217Z,95593.19
2022-12-12T03:21:17.621Z,95596.50
2022-12-12T03:23:48.601Z,95595.63
2022-12-12T03:26:20.063Z,95590.09
2022-12-12T03:28:51.622Z,95597.06
2022-12-12T03:31:23.935Z,95593.88
2022-12-12T03:33:57.484Z,95594.56
2022-12-12T03:36:28.650Z,95595.59
2022-12-12T03:39:01.451Z,95596.19
2022-12-12T03:41:35.288Z,95600.81
2022-12-12T03:44:07.085Z,95597.28
2022-12-12T03:46:40.004Z,95594.81
2022-12-12T03:49:13.498Z,95604.22
2022-12-12T03:51:45.365Z,95601.09
2022-12-12T03:54:19.424Z,95603.13
2022-12-12T03:56:51.242Z,95606.56
2022-12-12T03:59:27.140Z,95602.09
2022-12-12T04:02:00.219Z,95604.25
2022-12-12T04:04:33.940Z,95603.38
2022-12-12T04:07:05.147Z,95606.66
2022-12-12T04:09:50.868Z,95607.28
2022-12-12T04:12:39.442Z,95609.56
2022-12-12T04:15:37.823Z,95616.41
2022-12-12T04:18:14.368Z,95606.38
2022-12-12T04:21:05.081Z,95615.66
2022-12-12T04:23:38.257Z,95614.81
2022-12-12T04:26:29.211Z,95610.13
2022-12-12T04:29:05.524Z,95617.78
2022-12-12T04:31:36.094Z,95616.75
2022-12-12T04:34:08.907Z,95614.41
2022-12-12T04:36:38.953Z,95615.66
2022-12-12T04:39:08.331Z,95615.00
2022-12-12T04:41:37.841Z,95611.44
2022-12-12T04:44:09.138Z,95611.34
2022-12-12T04:46:38.230Z,95618.13
2022-12-12T04:49:09.233Z,95615.19
2022-12-12T04:51:42.697Z,95618.78
2022-12-12T04:54:13.576Z,95615.06
2022-12-12T04:56:44.326Z,95619.34
2022-12-12T04:59:13.068Z,95621.88
2022-12-12T05:01:51.285Z,95613.53
2022-12-12T05:04:26.103Z,95619.09
2022-12-12T05:06:59.215Z,95625.69
2022-12-12T05:09:27.623Z,95621.72
2022-12-12T05:11:56.126Z,95635.38
2022-12-12T05:14:24.367Z,95630.94
2022-12-12T05:16:55.385Z,95633.25
2022-12-12T05:19:23.653Z,95629.25
2022-12-12T05:21:51.982Z,95635.53
2022-12-12T05:24:21.600Z,95638.53
2022-12-12T05:26:49.877Z,95633.75
2022-12-12T05:29:18.175Z,95642.06
2022-12-12T05:31:46.418Z,95640.78
2022-12-12T05:34:14.843Z,95641.06
2022-12-12T05:36:43.230Z,95641.47
2022-12-12T05:39:11.529Z,95638.34
2022-12-12T05:41:41.217Z,95651.97
2022-12-12T05:44:09.783Z,95652.47
2022-12-12T05:46:38.241Z,95653.41
2022-12-12T05:49:06.545Z,95646.16
2022-12-12T05:51:34.777Z,95654.44
2022-12-12T05:54:03.340Z,95659.63
2022-12-12T05:56:31.601Z,95658.22
2022-12-12T05:59:01.204Z,95662.44
2022-12-12T06:01:29.594Z,95656.31
2022-12-12T06:03:57.901Z,95660.38
2022-12-12T06:06:26.185Z,95660.75
2022-12-12T06:08:54.482Z,95663.56
2022-12-12T06:11:22.764Z,95662.72
2022-12-12T06:13:51.024Z,95672.94
2022-12-12T06:16:21.039Z,95667.63
2022-12-12T06:18:52.575Z,95665.56
2022-12-12T06:21:22.063Z,95673.44
2022-12-12T06:23:50.835Z,95669.72
2022-12-12T06:26:20.617Z,95668.53
2022-12-12T06:28:49.412Z,95663.88
2022-12-12T06:31:18.585Z,95669.69
2022-12-12T06:33:48.356Z,95679.47
2022-12-12T06:36:23.827Z,95669.56
2022-12-12T06:38:52.847Z,95673.84
2022-12-12T06:41:22.285Z,95669.09
2022-12-12T06:43:50.708Z,95677.72
2022-12-12T06:46:21.516Z,95683.31
2022-12-12T06:48:51.572Z,95683.16
2022-12-12T06:51:22.698Z,95686.44
2022-12-12T06:53:51.317Z,95683.00
2022-12-12T06:56:22.143Z,95694.78
2022-12-12T06:58:51.050Z,95691.91
2022-12-12T07:01:21.703Z,95695.69
2022-12-12T07:03:52.255Z,95700.28
2022-12-12T07:06:21.053Z,95709.09
2022-12-12T07:08:49.421Z,95706.31
2022-12-12T07:11:19.203Z,95712.16
2022-12-12T07:13:47.918Z,95704.41
2022-12-12T07:16:16.484Z,95711.97
2022-12-12T07:18:44.937Z,95701.34
2022-12-12T07:21:16.878Z,95709.25
2022-12-12T07:23:45.663Z,95713.22
2022-12-12T07:26:16.505Z,95716.31
2022-12-12T07:28:45.123Z,95716.00
2022-12-12T07:31:15.034Z,95716.38
2022-12-12T07:33:44.786Z,95709.97
2022-12-12T07:36:16.170Z,95721.13
2022-12-12T07:38:44.934Z,95717.31
2022-12-12T07:41:15.040Z,95722.38
2022-12-12T07:43:45.167Z,95720.97
2022-12-12T07:46:16.105Z,95725.19
2022-12-12T07:48:45.246Z,95730.38
2022-12-12T07:51:15.467Z,95739.78
2022-12-12T07:53:43.931Z,95743.56
2022-12-12T07:56:13.803Z,95739.91
2022-12-12T07:58:42.279Z,95743.91
2022-12-12T08:01:14.954Z,95739.31
2022-12-12T08:03:44.382Z,95737.59
2022-12-12T08:06:16.220Z,95744.16
2022-12-12T08:08:44.904Z,95739.59
2022-12-12T08:11:16.197Z,95749.97
2022-12-12T08:13:44.506Z,95752.56
2022-12-12T08:16:15.399Z,95748.50
2022-12-12T08:18:43.721Z,95750.16
2022-12-12T08:21:15.199Z,95755.91
2022-12-12T08:23:44.958Z,95749.25
2022-12-12T08:26:16.562Z,95757.13
2022-12-12T08:28:49.012Z,95751.63
2022-12-12T08:31:17.949Z,95759.50
2022-12-12T08:33:46.594Z,95757.09
2022-12-12T08:36:18.181Z,95758.88
2022-12-12T08:38:46.606Z,95768.50
2022-12-12T08:41:15.393Z,95768.78
2022-12-12T08:43:44.451Z,95769.50
2022-12-12T08:46:17.418Z,95769.50
2022-12-12T08:48:46.807Z,95767.00
2022-12-12T08:51:16.936Z,95768.53
2022-12-12T08:53:45.933Z,95766.84
2022-12-12T08:56:14.283Z,95779.16
2022-12-12T08:58:42.881Z,95775.28
2022-12-12T09:01:12.342Z,95780.25
2022-12-12T09:03:40.905Z,95785.88
2022-12-12T09:06:10.179Z,95786.63
2022-12-12T09:08:40.123Z,95788.66
2022-12-12T09:11:08.867Z,95782.81
2022-12-12T09:13:37.391Z,95794.00
2022-12-12T09:16:06.803Z,95787.56
2022-12-12T09:18:35.501Z,95798.03
2022-12-12T09:21:04.251Z,95800.41
2022-12-12T09:23:32.731Z,95804.97
2022-12-12T09:26:07.009Z,95800.97
2022-12-12T09:28:35.899Z,95811.03
2022-12-12T09:31:05.937Z,95809.16
2022-12-12T09:33:34.533Z,95807.03
2022-12-12T09:36:03.866Z,95803.84
2022-12-12T09:38:32.241Z,95806.38
2022-12-12T09:41:02.700Z,95801.97
2022-12-12T09:43:34.979Z,95802.59
2022-12-12T09:46:04.215Z,95799.25
2022-12-12T09:48:41.971Z,95807.81
2022-12-12T09:51:11.045Z,95797.97
2022-12-12T09:53:40.096Z,95793.63
2022-12-12T09:56:11.900Z,95796.94
2022-12-12T09:58:50.180Z,95801.34
2022-12-12T10:01:21.789Z,95803.38
2022-12-12T10:03:57.581Z,95796.28
2022-12-12T10:06:36.947Z,95799.56
2022-12-12T10:09:23.709Z,95791.06
2022-12-12T10:11:54.831Z,95794.22
2022-12-12T10:14:29.062Z,95792.66
2022-12-12T10:16:58.625Z,95789.81
2022-12-12T10:19:30.863Z,95793.25
2022-12-12T10:22:07.629Z,95791.97
2022-12-12T10:24:40.271Z,95796.63
2022-12-12T10:27:10.709Z,95796.13
2022-12-12T10:29:41.755Z,95797.03
2022-12-12T10:32:15.548Z,95795.53
2022-12-12T10:34:56.037Z,95785.00
2022-12-12T10:37:36.230Z,95789.47
2022-12-12T10:40:18.686Z,95787.81
2022-12-12T10:42:50.322Z,95792.66
2022-12-12T10:45:32.489Z,95791.22
2022-12-12T10:48:00.739Z,95787.81
2022-12-12T10:50:33.927Z,95784.94
2022-12-12T10:53:03.134Z,95790.50
2022-12-12T10:55:38.562Z,95794.84
2022-12-12T10:58:07.759Z,95794.06
2022-12-12T11:00:39.651Z,95795.16
2022-12-12T11:03:22.367Z,95789.91
2022-12-12T11:05:50.681Z,95788.03
2022-12-12T11:08:22.196Z,95782.19
2022-12-12T11:11:05.875Z,95787.81
2022-12-12T11:13:41.059Z,95780.34
2022-12-12T11:16:15.388Z,95780.69
2022-12-12T11:18:58.282Z,95784.78
2022-12-12T11:21:26.823Z,95788.28
2022-12-12T11:23:56.432Z,95784.34
2022-12-12T11:26:25.033Z,95789.34
2022-12-12T11:28:56.140Z,95790.66
2022-12-12T11:31:28.674Z,95780.78
2022-12-12T11:33:59.324Z,95780.00
2022-12-12T11:36:29.744Z,95781.97
2022-12-12T11:38:59.182Z,95774.53
2022-12-12T11:41:27.436Z,95776.28
2022-12-12T11:44:00.214Z,95783.66
2022-12-12T11:46:31.474Z,95786.22
2022-12-12T11:49:01.636Z,95776.72
2022-12-12T11:51:35.808Z,95782.09
2022-12-12T11:54:05.695Z,95783.47
2022-12-12T11:56:43.469Z,95764.72
2022-12-12T11:59:30.926Z,95773.56
2022-12-12T12:02:07.692Z,95767.03
2022-12-12T12:04:49.602Z,95774.16
2022-12-12T12:07:34.409Z,95762.78
2022-12-12T12:10:08.232Z,95765.44
2022-12-12T12:12:47.997Z,95763.84
2022-12-12T12:15:25.668Z,95753.06
2022-12-12T12:18:05.092Z,95756.47
2022-12-12T12:20:58.532Z,95748.00
2022-12-12T12:23:39.201Z,95752.81
2022-12-12T12:26:12.496Z,95747.84
2022-12-12T12:29:16.696Z,95743.75
2022-12-12T12:31:52.039Z,95745.81
2022-12-12T12:34:23.681Z,95745.97
2022-12-12T12:37:04.182Z,95742.53
2022-12-12T12:39:52.164Z,95750.91
2022-12-12T12:42:32.824Z,95738.22
2022-12-12T12:45:03.402Z,95744.00
2022-12-12T12:47:36.864Z,95753.22
2022-12-12T12:50:14.604Z,95751.75
2022-12-12T12:52:45.115Z,95745.59
2022-12-12T12:55:17.356Z,95757.13
2022-12-12T12:57:47.307Z,95759.69
2022-12-12T13:00:18.304Z,95760.00
2022-12-12T13:02:52.248Z,95757.94
2022-12-12T13:05:25.182Z,95749.38
2022-12-12T13:07:57.776Z,95748.41
2022-12-12T13:10:28.583Z,95743.34
2022-12-12T13:12:59.375Z,95743.59
2022-12-12T13:15:30.283Z,95745.38
2022-12-12T13:18:04.321Z,95744.72
2022-12-12T13:20:37.261Z,95742.66
2022-12-12T13:23:16.453Z,95735.84
2022-12-12T13:25:50.768Z,95734.94
2022-12-12T13:28:22.267Z,95746.38
2022-12-12T13:31:14.937Z,95743.88
2022-12-12T13:33:46.261Z,95745.44
2022-12-12T13:36:24.501Z,95750.94
2022-12-12T13:38:58.702Z,95753.28
2022-12-12T13:41:27.236Z,95746.53
2022-12-12T13:43:58.210Z,95756.44
2022-12-12T13:46:42.022Z,95750.78
2022-12-12T13:49:24.904Z,95748.88
2022-12-12T13:52:24.792Z,95749.00
2022-12-12T13:55:12.691Z,95762.97
2022-12-12T13:58:10.262Z,95768.59
2022-12-12T14:00:39.137Z,95757.25
2022-12-12T14:03:34.776Z,95769.19
2022-12-12T14:06:12.027Z,95759.91
2022-12-12T14:08:49.619Z,95760.53
2022-12-12T14:11:29.139Z,95756.31
2022-12-12T14:14:06.596Z,95765.13
2022-12-12T14:16:35.550Z,95764.19
2022-12-12T14:19:09.804Z,95766.75
2022-12-12T14:21:44.449Z,95764.28
2022-12-12T14:27:18.535Z,95759.63
2022-12-12T14:29:46.984Z,95766.63
2022-12-12T14:32:36.961Z,95770.28
2022-12-12T14:35:24.045Z,95761.28
2022-12-12T14:37:58.115Z,95771.16
2022-12-12T14:40:28.336Z,95768.88
2022-12-12T14:43:19.939Z,95773.72
2022-12-12T14:45:57.524Z,95780.63
2022-12-12T14:48:28.717Z,95772.13
2022-12-12T14:51:09.223Z,95777.25
2022-12-12T14:53:47.999Z,95781.41
2022-12-12T14:56:18.181Z,95784.63
2022-12-12T14:58:51.696Z,95784.72
2022-12-12T15:01:31.288Z,95786.53
2022-12-12T15:04:00.453Z,95786.84
2022-12-12T15:06:31.360Z,95795.63
2022-12-12T15:09:11.006Z,95797.47
2022-12-12T15:11:39.400Z,95800.06
2022-12-12T15:14:21.384Z,95797.13
2022-12-12T15:16:53.074Z,95796.63
2022-12-12T15:19:26.956Z,95797.97
2022-12-12T15:21:55.638Z,95791.31
2022-12-12T15:24:25.794Z,95782.22
2022-12-12T15:26:56.363Z,95774.75
2022-12-12T15:29:26.487Z,95777.81
2022-12-12T15:32:01.041Z,95771.41
2022-12-12T15:34:36.720Z,95777.88
2022-12-12T15:37:13.133Z,95780.97
2022-12-12T15:39:41.404Z,95783.31
2022-12-12T15:42:11.133Z,95784.88
2022-12-12T15:44:41.212Z,95786.44
2022-12-12T15:47:11.196Z,95790.00
2022-12-12T15:49:41.182Z,95785.25
2022-12-12T15:52:11.668Z,95775.94
2022-12-12T15:54:47.022Z,95779.03
2022-12-12T15:57:18.094Z,95778.00
2022-12-12T15:59:53.256Z,95776.44
2022-12-12T16:02:27.291Z,95782.03
2022-12-12T16:04:57.567Z,95777.69
2022-12-12T16:07:25.904Z,95779.75
2022-12-12T16:10:01.905Z,95789.00
2022-12-12T16:12:55.440Z,95797.41
2022-12-12T16:15:34.268Z,95790.97
2022-12-12T16:18:05.091Z,95787.97
2022-12-12T16:20:33.626Z,95781.50
2022-12-12T16:23:18.549Z,95791.78
2022-12-12T16:25:46.863Z,95789.97
2022-12-12T16:28:25.596Z,95803.31
2022-12-12T16:30:58.265Z,95804.19
2022-12-12T16:33:30.104Z,95808.56
2022-12-12T16:36:00.484Z,95808.56
2022-12-12T16:38:29.503Z,95811.44
2022-12-12T16:41:00.492Z,95815.34
2022-12-12T16:43:29.271Z,95813.88
2022-12-12T16:45:59.742Z,95816.53
2022-12-12T16:48:28.583Z,95825.25
2022-12-12T16:50:59.609Z,95822.56
2022-12-12T16:53:28.255Z,95824.06
2022-12-12T16:55:56.874Z,95820.44
2022-12-12T16:58:25.596Z,95827.22
2022-12-12T17:00:54.646Z,95828.06
2022-12-12T17:03:24.664Z,95830.25
2022-12-12T17:05:53.746Z,95823.16
2022-12-12T17:08:22.171Z,95823.06
2022-12-12T17:10:53.162Z,95816.88
2022-12-12T17:13:40.486Z,95815.41
2022-12-12T17:16:09.021Z,95812.81
2022-12-12T17:18:39.263Z,95821.41
2022-12-12T17:21:07.538Z,95823.53
2022-12-12T17:23:35.883Z,95820.31
2022-12-12T17:26:05.230Z,95822.31
2022-12-12T17:28:34.632Z,95827.78
2022-12-12T17:31:03.303Z,95830.56
2022-12-12T17:33:31.592Z,95834.59
2022-12-12T17:36:02.594Z,95842.56
2022-12-12T17:38:31.163Z,95838.53
2022-12-12T17:41:02.920Z,95843.38
2022-12-12T17:43:31.169Z,95839.44
2022-12-12T17:46:00.550Z,95836.63
2022-12-12T17:48:30.731Z,95836.44
2022-12-12T17:51:01.870Z,95833.53
2022-12-12T17:53:32.473Z,95831.34
2022-12-12T17:56:01.581Z,95825.66
2022-12-12T17:58:37.175Z,95829.13
2022-12-12T18:01:12.382Z,95829.72
2022-12-12T18:03:40.802Z,95827.69
2022-12-12T18:06:10.737Z,95829.34
2022-12-12T18:08:39.349Z,95837.53
2022-12-12T18:11:08.889Z,95836.81
2022-12-12T18:13:38.556Z,95830.22
2022-12-12T18:16:08.130Z,95831.16
2022-12-12T18:18:36.735Z,95839.81
2022-12-12T18:21:05.777Z,95833.91
2022-12-12T18:23:35.403Z,95834.03
2022-12-12T18:26:05.327Z,95831.97
2022-12-12T18:28:33.711Z,95834.03
2022-12-12T18:31:02.523Z,95838.53
2022-12-12T18:33:30.853Z,95837.13
2022-12-12T18:36:03.695Z,95841.03
2022-12-12T18:38:32.700Z,95834.97
2022-12-12T18:41:02.333Z,95825.22
2022-12-12T18:43:31.113Z,95829.84
2022-12-12T18:46:03.095Z,95827.38
2022-12-12T18:48:31.537Z,95832.59
2022-12-12T18:51:05.204Z,95827.69
2022-12-12T18:53:33.744Z,95829.56
2022-12-12T18:56:05.903Z,95828.28
2022-12-12T18:58:34.575Z,95839.28
2022-12-12T19:01:06.511Z,95842.06
2022-12-12T19:03:35.535Z,95838.88
2022-12-12T19:06:05.634Z,95842.69
2022-12-12T19:08:33.938Z,95845.81
2022-12-12T19:11:03.831Z,95843.06
2022-12-12T19:13:32.409Z,95846.41
2022-12-12T19:16:04.821Z,95846.47
2022-12-12T19:18:33.339Z,95857.78
2022-12-12T19:21:05.115Z,95856.84
2022-12-12T19:23:33.424Z,95848.66
2022-12-12T19:26:06.059Z,95850.31
2022-12-12T19:28:34.820Z,95852.06
2022-12-12T19:31:07.503Z,95851.91
2022-12-12T19:33:35.831Z,95850.72
2022-12-12T19:36:11.402Z,95849.50
2022-12-12T19:38:39.689Z,95845.69
2022-12-12T19:41:10.212Z,95846.97
2022-12-12T19:43:38.714Z,95851.63
2022-12-12T19:46:08.943Z,95851.03
2022-12-12T19:48:37.479Z,95854.66
2022-12-12T19:51:07.742Z,95844.66
2022-12-12T19:53:39.631Z,95856.06
2022-12-12T19:56:09.525Z,95840.19
2022-12-12T19:58:38.879Z,95839.47
2022-12-12T20:01:08.890Z,95840.59
2022-12-12T20:03:37.333Z,95840.84
2022-12-12T20:06:08.458Z,95834.19
2022-12-12T20:08:37.976Z,95838.41
2022-12-12T20:11:07.929Z,95851.31
2022-12-12T20:13:37.742Z,95848.72
2022-12-12T20:16:07.167Z,95849.31
2022-12-12T20:18:35.630Z,95847.34
2022-12-12T20:21:04.660Z,95844.94
2022-12-12T20:23:34.554Z,95837.25
2022-12-12T20:26:04.015Z,95841.00
2022-12-12T20:28:32.298Z,95834.38
2022-12-12T20:31:06.808Z,95850.25
2022-12-12T20:33:35.314Z,95849.41
2022-12-12T20:36:04.566Z,95843.34
2022-12-12T20:38:33.784Z,95841.38
2022-12-12T20:41:02.690Z,95847.34
2022-12-12T20:43:31.031Z,95845.81
2022-12-12T20:45:59.339Z,95842.50
2022-12-12T20:48:29.080Z,95848.91
2022-12-12T20:50:58.892Z,95845.91
2022-12-12T20:53:29.062Z,95838.03
2022-12-12T20:56:09.222Z,95843.84
2022-12-12T20:58:39.080Z,95841.81
2022-12-12T21:01:11.219Z,95834.75
2022-12-12T21:03:41.576Z,95831.69
2022-12-12T21:06:13.240Z,95818.91
2022-12-12T21:08:41.492Z,95830.00
2022-12-12T21:11:10.171Z,95835.00
2022-12-12T21:13:38.406Z,95829.66
2022-12-12T21:16:10.773Z,95827.03
2022-12-12T21:18:40.559Z,95826.63
2022-12-12T21:21:12.086Z,95829.91
2022-12-12T21:23:40.873Z,95829.66
2022-12-12T21:26:16.698Z,95816.78
2022-12-12T21:28:47.670Z,95824.84
2022-12-12T21:31:18.194Z,95834.38
2022-12-12T21:33:48.351Z,95838.22
2022-12-12T21:36:18.068Z,95835.94
2022-12-12T21:38:46.470Z,95835.91
2022-12-12T21:41:16.191Z,95836.59
2022-12-12T21:43:45.997Z,95840.91
2022-12-12T21:46:15.486Z,95833.31
2022-12-12T21:48:43.787Z,95830.81
2022-12-12T21:51:15.785Z,95836.19
2022-12-12T21:53:44.270Z,95834.25
2022-12-12T21:56:15.818Z,95830.00
2022-12-12T21:58:45.904Z,95834.25
2022-12-12T22:01:15.966Z,95834.78
2022-12-12T22:03:44.641Z,95832.41
2022-12-12T22:06:15.337Z,95827.81
2022-12-12T22:08:44.068Z,95833.06
2022-12-12T22:11:12.507Z,95830.09
2022-12-12T22:13:41.302Z,95825.75
2022-12-12T22:16:12.826Z,95839.31
2022-12-12T22:18:41.337Z,95831.53
2022-12-12T22:21:11.322Z,95837.28
2022-12-12T22:23:40.868Z,95829.84
2022-12-12T22:26:16.153Z,95825.16
2022-12-12T22:28:44.470Z,95824.13
2022-12-12T22:31:12.861Z,95824.88
2022-12-12T22:33:41.299Z,95818.88
2022-12-12T22:36:11.054Z,95816.53
2022-12-12T22:38:40.776Z,95816.81
2022-12-12T22:41:09.214Z,95814.75
2022-12-12T22:43:37.448Z,95823.13
2022-12-12T22:46:06.978Z,95817.97
2022-12-12T22:48:36.219Z,95827.22
2022-12-12T22:51:13.584Z,95813.50
2022-12-12T22:53:44.562Z,95811.03
2022-12-12T22:56:13.417Z,95817.41
2022-12-12T22:58:41.898Z,95823.34
2022-12-12T23:01:12.571Z,95814.91
2022-12-12T23:03:41.027Z,95814.25
2022-12-12T23:06:12.290Z,95808.91
2022-12-12T23:08:40.544Z,95809.00
2022-12-12T23:11:13.662Z,95804.25
2022-12-12T23:13:44.244Z,95801.56
2022-12-12T23:16:14.575Z,95798.63
2022-12-12T23:18:42.820Z,95798.69
2022-12-12T23:21:16.695Z,95803.59
2022-12-12T23:23:45.684Z,95803.97
2022-12-12T23:26:17.112Z,95803.97
2022-12-12T23:28:45.894Z,95793.78
2022-12-12T23:31:15.879Z,95799.00
2022-12-12T23:33:44.129Z,95793.63
2022-12-12T23:36:14.077Z,95791.19
2022-12-12T23:38:42.618Z,95784.75
2022-12-12T23:41:13.266Z,95793.63
2022-12-12T23:43:43.246Z,95799.19
2022-12-12T23:46:28.415Z,95792.75
2022-12-12T23:48:57.710Z,95793.84
2022-12-12T23:51:27.243Z,95781.69
2022-12-12T23:53:56.221Z,95779.09
2022-12-12T23:56:24.510Z,95784.66
2022-12-12T23:58:54.335Z,95772.84
